createdAt,value
2018-02-09T00:00:38.181Z,60.87
2018-02-09T00:03:05.971Z,61.63
2018-02-09T00:05:33.666Z,53.80
2018-02-09T00:08:01.307Z,53.07
2018-02-09T00:10:29.075Z,54.60
2018-02-09T00:12:56.638Z,49.77
2018-02-09T00:15:24.193Z,50.77
2018-02-09T00:17:51.758Z,53.23
2018-02-09T00:20:19.584Z,51.73
2018-02-09T00:22:53.425Z,55.93
2018-02-09T00:25:20.989Z,51.37
2018-02-09T00:27:48.552Z,49.60
2018-02-09T00:30:16.282Z,46.87
2018-02-09T00:32:43.970Z,50.70
2018-02-09T00:35:11.684Z,42.00
2018-02-09T00:37:39.240Z,43.73
2018-02-09T00:40:06.814Z,44.47
2018-02-09T00:42:34.566Z,47.47
2018-02-09T00:45:02.129Z,41.67
2018-02-09T00:47:29.814Z,59.20
2018-02-09T00:49:57.621Z,50.27
2018-02-09T00:52:25.188Z,50.60
2018-02-09T00:54:52.749Z,51.13
2018-02-09T00:57:20.458Z,50.13
2018-02-09T00:59:48.021Z,45.83
2018-02-09T01:02:15.811Z,39.03
2018-02-09T01:04:43.405Z,43.83
2018-02-09T01:07:11.018Z,39.40
2018-02-09T01:09:38.562Z,38.30
2018-02-09T01:12:06.204Z,38.13
2018-02-09T01:14:33.766Z,38.07
2018-02-09T01:17:01.486Z,34.57
2018-02-09T01:19:29.113Z,33.17
2018-02-09T01:21:56.819Z,42.87
2018-02-09T01:24:24.534Z,46.80
2018-02-09T01:26:52.429Z,47.00
2018-02-09T01:29:19.995Z,43.13
2018-02-09T01:31:47.727Z,43.07
2018-02-09T01:34:15.285Z,43.83
2018-02-09T01:36:42.909Z,45.57
2018-02-09T01:39:10.681Z,51.27
2018-02-09T01:41:38.261Z,53.20
2018-02-09T01:44:05.840Z,49.20
2018-02-09T01:46:33.395Z,39.30
2018-02-09T01:49:00.961Z,39.67
2018-02-09T01:51:28.534Z,35.73
2018-02-09T01:53:56.289Z,34.93
2018-02-09T01:56:24.006Z,31.13
2018-02-09T01:58:51.553Z,30.00
2018-02-09T02:01:19.161Z,32.63
2018-02-09T02:03:46.721Z,35.93
2018-02-09T02:06:14.478Z,30.07
2018-02-09T02:08:42.296Z,29.80
2018-02-09T02:11:09.866Z,34.27
2018-02-09T02:13:37.406Z,29.13
2018-02-09T02:16:05.029Z,34.80
2018-02-09T02:18:32.587Z,33.37
2018-02-09T02:21:00.128Z,34.60
2018-02-09T02:23:27.658Z,39.53
2018-02-09T02:25:55.524Z,45.40
2018-02-09T02:28:23.339Z,49.43
2018-02-09T02:30:51.025Z,49.57
2018-02-09T02:33:18.878Z,47.30
2018-02-09T02:35:46.424Z,50.43
2018-02-09T02:38:13.990Z,51.63
2018-02-09T02:40:41.615Z,45.83
2018-02-09T02:43:09.177Z,44.67
2018-02-09T02:45:36.775Z,47.43
2018-02-09T02:48:04.595Z,43.00
2018-02-09T02:50:32.189Z,44.00
2018-02-09T02:52:59.777Z,42.30
2018-02-09T02:55:27.537Z,48.23
2018-02-09T02:57:55.137Z,49.60
2018-02-09T03:00:22.873Z,52.10
2018-02-09T03:02:50.442Z,53.50
2018-02-09T03:05:18.210Z,51.87
2018-02-09T03:07:45.761Z,52.20
2018-02-09T03:10:13.321Z,53.00
2018-02-09T03:12:40.877Z,44.07
2018-02-09T03:15:08.682Z,41.27
2018-02-09T03:17:36.361Z,40.30
2018-02-09T03:20:03.941Z,43.83
2018-02-09T03:22:31.501Z,40.60
2018-02-09T03:24:59.057Z,38.37
2018-02-09T03:27:26.617Z,41.67
2018-02-09T03:29:54.183Z,43.70
2018-02-09T03:32:21.746Z,48.53
2018-02-09T03:34:50.200Z,49.33
2018-02-09T03:37:17.805Z,45.70
2018-02-09T03:39:45.349Z,45.93
2018-02-09T03:42:13.049Z,45.97
2018-02-09T03:44:40.600Z,43.90
2018-02-09T03:47:08.166Z,48.77
2018-02-09T03:49:35.726Z,56.37
2018-02-09T03:52:03.615Z,55.97
2018-02-09T03:54:31.355Z,50.50
2018-02-09T03:56:59.047Z,49.23
2018-02-09T03:59:26.620Z,48.90
2018-02-09T04:01:54.425Z,57.00
2018-02-09T04:04:22.001Z,51.47
2018-02-09T04:06:49.557Z,43.47
2018-02-09T04:09:17.112Z,50.97
2018-02-09T04:11:44.673Z,48.93
2018-02-09T04:14:12.385Z,45.57
2018-02-09T04:16:39.949Z,43.03
2018-02-09T04:19:07.563Z,51.73
2018-02-09T04:21:35.562Z,42.33
2018-02-09T04:24:03.387Z,58.77
2018-02-09T04:26:31.107Z,51.93
2018-02-09T04:28:58.924Z,51.13
2018-02-09T04:31:26.535Z,52.90
2018-02-09T04:33:54.109Z,60.73
2018-02-09T04:36:21.877Z,56.33
2018-02-09T04:38:49.429Z,51.70
2018-02-09T04:41:16.989Z,48.93
2018-02-09T04:43:44.538Z,43.20
2018-02-09T04:46:12.348Z,51.30
2018-02-09T04:48:40.039Z,46.87
2018-02-09T04:51:07.755Z,50.20
2018-02-09T04:53:35.322Z,53.93
2018-02-09T04:56:02.873Z,56.57
2018-02-09T04:58:30.520Z,60.97
2018-02-09T05:00:58.085Z,52.67
2018-02-09T05:03:25.640Z,52.67
2018-02-09T05:05:53.206Z,50.13
2018-02-09T05:08:20.770Z,49.30
2018-02-09T05:10:48.530Z,51.93
2018-02-09T05:13:16.115Z,52.37
2018-02-09T05:15:43.965Z,47.90
2018-02-09T05:18:11.534Z,42.20
2018-02-09T05:20:39.086Z,47.53
2018-02-09T05:23:07.235Z,45.77
2018-02-09T05:25:34.944Z,41.57
2018-02-09T05:28:02.499Z,31.87
2018-02-09T05:30:30.061Z,33.63
2018-02-09T05:32:57.790Z,31.87
2018-02-09T05:35:25.357Z,32.07
2018-02-09T05:37:52.913Z,27.00
2018-02-09T05:40:20.644Z,28.27
2018-02-09T05:42:48.213Z,43.47
2018-02-09T05:45:15.874Z,43.73
2018-02-09T05:47:43.630Z,44.97
2018-02-09T05:50:11.193Z,36.33
2018-02-09T05:52:38.750Z,41.40
2018-02-09T05:55:06.544Z,33.47
2018-02-09T05:57:34.102Z,39.97
2018-02-09T06:00:01.781Z,45.30
2018-02-09T06:02:29.477Z,35.47
2018-02-09T06:04:57.115Z,36.17
2018-02-09T06:07:24.658Z,37.73
2018-02-09T06:09:52.241Z,32.63
2018-02-09T06:12:19.943Z,28.93
2018-02-09T06:14:47.505Z,35.87
2018-02-09T06:17:15.126Z,35.07
2018-02-09T06:19:42.693Z,32.97
2018-02-09T06:22:10.252Z,29.63
2018-02-09T06:24:37.821Z,29.23
2018-02-09T06:27:05.592Z,27.37
2018-02-09T06:29:33.162Z,23.43
2018-02-09T06:32:00.720Z,27.40
2018-02-09T06:34:28.353Z,29.17
2018-02-09T06:36:56.158Z,26.30
2018-02-09T06:39:23.713Z,21.67
2018-02-09T06:41:51.382Z,22.53
2018-02-09T06:44:19.110Z,21.53
2018-02-09T06:46:46.704Z,23.37
2018-02-09T06:49:14.435Z,24.53
2018-02-09T06:51:42.264Z,23.40
2018-02-09T06:54:10.797Z,21.50
2018-02-09T06:56:38.395Z,16.90
2018-02-09T06:59:06.100Z,20.03
2018-02-09T07:01:33.658Z,20.60
2018-02-09T07:04:01.207Z,19.23
2018-02-09T07:06:28.753Z,18.27
2018-02-09T07:08:56.594Z,20.50
2018-02-09T07:11:24.163Z,19.83
2018-02-09T07:13:51.721Z,24.43
2018-02-09T07:16:19.346Z,20.67
2018-02-09T07:18:46.958Z,20.07
2018-02-09T07:21:14.599Z,19.07
2018-02-09T07:23:42.145Z,18.33
2018-02-09T07:26:09.766Z,18.83
2018-02-09T07:28:37.494Z,22.80
2018-02-09T07:31:05.236Z,17.97
2018-02-09T07:33:32.927Z,18.33
2018-02-09T07:36:00.489Z,21.93
2018-02-09T07:38:28.099Z,15.67
2018-02-09T07:40:55.717Z,21.00
2018-02-09T07:43:23.849Z,19.57
2018-02-09T07:45:51.418Z,20.67
2018-02-09T07:48:18.976Z,41.80
2018-02-09T07:50:46.532Z,17.57
2018-02-09T07:53:14.107Z,18.40
2018-02-09T07:55:41.670Z,23.03
2018-02-09T07:58:09.329Z,20.63
2018-02-09T08:00:37.071Z,18.20
2018-02-09T08:03:04.796Z,13.10
2018-02-09T08:05:32.353Z,17.70
2018-02-09T08:08:00.124Z,19.53
2018-02-09T08:10:27.688Z,17.37
2018-02-09T08:12:55.461Z,17.83
2018-02-09T08:15:24.366Z,22.27
2018-02-09T08:17:52.149Z,18.23
2018-02-09T08:20:19.782Z,22.67
2018-02-09T08:22:47.681Z,18.43
2018-02-09T08:25:15.397Z,19.17
2018-02-09T08:27:42.953Z,26.47
2018-02-09T08:30:10.522Z,24.40
2018-02-09T08:32:38.081Z,26.10
2018-02-09T08:35:05.880Z,20.97
2018-02-09T08:37:33.596Z,21.67
2018-02-09T08:40:01.168Z,15.63
2018-02-09T08:42:28.789Z,17.00
2018-02-09T08:44:56.341Z,21.93
2018-02-09T08:47:24.171Z,20.40
2018-02-09T08:49:51.856Z,11.60
2018-02-09T08:52:19.492Z,15.90
2018-02-09T08:54:47.222Z,15.37
2018-02-09T08:57:14.941Z,14.27
2018-02-09T08:59:42.512Z,9.30
2018-02-09T09:02:10.068Z,11.10
2018-02-09T09:04:37.648Z,8.10
2018-02-09T09:07:05.214Z,11.53
2018-02-09T09:09:32.838Z,18.67
2018-02-09T09:12:00.417Z,13.67
2018-02-09T09:14:27.978Z,14.20
2018-02-09T09:16:55.539Z,11.33
2018-02-09T09:19:23.278Z,17.27
2018-02-09T09:21:50.843Z,17.83
2018-02-09T09:24:18.409Z,19.43
2018-02-09T09:26:46.259Z,24.97
2018-02-09T09:29:13.871Z,28.33
2018-02-09T09:31:41.435Z,22.20
2018-02-09T09:34:09.089Z,21.13
2018-02-09T09:36:36.827Z,26.20
2018-02-09T09:39:04.496Z,17.30
2018-02-09T09:41:32.073Z,24.07
2018-02-09T09:43:59.697Z,24.30
2018-02-09T09:46:27.394Z,16.70
2018-02-09T09:48:54.981Z,20.23
2018-02-09T09:51:22.812Z,19.20
2018-02-09T09:53:50.528Z,17.57
2018-02-09T09:56:18.089Z,18.30
2018-02-09T09:58:45.890Z,15.07
2018-02-09T10:01:19.430Z,11.60
2018-02-09T10:03:46.985Z,9.27
2018-02-09T10:06:14.550Z,8.17
2018-02-09T10:08:42.127Z,7.17
2018-02-09T10:11:09.900Z,56.03
2018-02-09T10:13:37.491Z,8.00
2018-02-09T10:16:05.059Z,7.13
2018-02-09T10:18:32.853Z,6.33
2018-02-09T10:21:00.571Z,6.80
2018-02-09T10:23:28.240Z,7.37
2018-02-09T10:25:56.010Z,6.67
2018-02-09T10:28:23.561Z,6.10
2018-02-09T10:30:51.220Z,7.33
2018-02-09T10:33:18.786Z,4.00
2018-02-09T10:35:46.509Z,3.47
2018-02-09T10:38:14.298Z,4.03
2018-02-09T10:40:41.893Z,7.93
2018-02-09T10:43:09.513Z,5.43
2018-02-09T10:45:37.257Z,4.47
2018-02-09T10:48:04.862Z,3.77
2018-02-09T10:50:32.589Z,4.20
2018-02-09T10:53:00.407Z,6.00
2018-02-09T10:55:27.954Z,4.83
2018-02-09T10:57:55.743Z,5.57
2018-02-09T11:00:28.994Z,6.10
2018-02-09T11:02:56.698Z,7.00
2018-02-09T11:05:24.518Z,3.70
2018-02-09T11:07:52.131Z,5.23
2018-02-09T11:10:25.216Z,6.80
2018-02-09T11:12:52.871Z,6.50
2018-02-09T11:15:20.686Z,4.70
2018-02-09T11:17:48.252Z,8.47
2018-02-09T11:20:15.814Z,16.53
2018-02-09T11:22:43.563Z,8.23
2018-02-09T11:25:11.124Z,10.23
2018-02-09T11:27:38.689Z,7.10
2018-02-09T11:30:06.231Z,5.57
2018-02-09T11:32:34.009Z,7.97
2018-02-09T11:35:01.752Z,14.73
2018-02-09T11:37:29.316Z,9.20
2018-02-09T11:39:56.888Z,6.30
2018-02-09T11:42:24.445Z,4.57
2018-02-09T11:44:52.006Z,8.93
2018-02-09T11:47:19.554Z,7.13
2018-02-09T11:49:47.422Z,6.57
2018-02-09T11:52:14.978Z,5.87
2018-02-09T11:54:42.695Z,8.50
2018-02-09T11:57:10.262Z,14.73
2018-02-09T11:59:37.833Z,7.57
2018-02-09T12:02:05.402Z,22.13
2018-02-09T12:04:33.073Z,11.30
2018-02-09T12:07:00.940Z,17.23
2018-02-09T12:09:28.486Z,10.03
2018-02-09T12:11:56.038Z,9.20
2018-02-09T12:14:23.843Z,35.30
2018-02-09T12:16:51.474Z,25.77
2018-02-09T12:19:19.053Z,4.97
2018-02-09T12:21:46.637Z,5.80
2018-02-09T12:24:14.250Z,7.77
2018-02-09T12:26:41.919Z,14.67
2018-02-09T12:29:09.487Z,18.10
2018-02-09T12:31:37.053Z,12.07
2018-02-09T12:34:04.621Z,21.00
2018-02-09T12:36:32.291Z,17.60
2018-02-09T12:38:59.845Z,9.00
2018-02-09T12:41:27.601Z,13.47
2018-02-09T12:43:55.312Z,14.60
2018-02-09T12:46:22.964Z,23.37
2018-02-09T12:48:50.558Z,101.03
2018-02-09T12:51:18.118Z,25.33
2018-02-09T12:53:45.686Z,12.40
2018-02-09T12:56:13.256Z,31.80
2018-02-09T12:58:40.978Z,12.63
2018-02-09T13:01:08.537Z,12.83
2018-02-09T13:03:36.270Z,10.40
2018-02-09T13:06:04.115Z,25.40
2018-02-09T13:08:31.833Z,69.43
2018-02-09T13:10:59.542Z,7.43
2018-02-09T13:13:27.106Z,12.30
2018-02-09T13:15:54.725Z,29.17
2018-02-09T13:18:34.097Z,12.03
2018-02-09T13:21:01.755Z,10.07
2018-02-09T13:23:41.002Z,9.33
2018-02-09T13:26:08.596Z,11.97
2018-02-09T13:28:47.943Z,8.90
2018-02-09T13:31:15.717Z,44.33
2018-02-09T13:33:43.537Z,17.23
2018-02-09T13:36:11.474Z,24.77
2018-02-09T13:38:39.033Z,11.00
2018-02-09T13:41:06.793Z,58.33
2018-02-09T13:43:34.353Z,15.13
2018-02-09T13:46:02.101Z,98.00
2018-02-09T13:48:29.659Z,40.27
2018-02-09T13:50:57.466Z,10.03
2018-02-09T13:53:25.042Z,21.87
2018-02-09T13:55:52.691Z,27.97
2018-02-09T13:58:20.297Z,21.60
2018-02-09T14:00:48.000Z,76.83
2018-02-09T14:03:15.534Z,10.70
2018-02-09T14:05:43.279Z,10.93
2018-02-09T14:08:10.851Z,12.73
2018-02-09T14:10:38.418Z,11.00
2018-02-09T14:13:06.225Z,8.37
2018-02-09T14:15:33.945Z,12.00
2018-02-09T14:18:01.762Z,10.70
2018-02-09T14:20:29.481Z,6.27
2018-02-09T14:22:57.055Z,5.70
2018-02-09T14:25:24.817Z,9.83
2018-02-09T14:27:52.534Z,6.53
2018-02-09T14:30:20.102Z,18.87
2018-02-09T14:32:47.658Z,7.57
2018-02-09T14:35:15.275Z,7.77
2018-02-09T14:37:42.924Z,7.80
2018-02-09T14:40:10.619Z,8.30
2018-02-09T14:42:39.151Z,9.80
2018-02-09T14:45:07.055Z,12.43
2018-02-09T14:47:34.681Z,9.43
2018-02-09T14:50:02.333Z,6.77
2018-02-09T14:52:30.109Z,16.50
2018-02-09T14:54:57.822Z,19.20
2018-02-09T14:57:25.477Z,12.70
2018-02-09T14:59:53.184Z,10.43
2018-02-09T15:02:20.889Z,79.43
2018-02-09T15:04:48.575Z,11.90
2018-02-09T15:07:16.709Z,8.67
2018-02-09T15:09:44.342Z,7.80
2018-02-09T15:12:11.943Z,13.33
2018-02-09T15:14:39.682Z,18.30
2018-02-09T15:17:07.501Z,11.23
2018-02-09T15:19:35.139Z,11.47
2018-02-09T15:22:02.777Z,11.80
2018-02-09T15:24:30.334Z,11.03
2018-02-09T15:26:58.229Z,12.77
2018-02-09T15:29:25.978Z,11.50
2018-02-09T15:31:53.802Z,11.20
2018-02-09T15:34:21.633Z,15.17
2018-02-09T15:36:49.244Z,16.07
2018-02-09T15:39:16.856Z,17.97
2018-02-09T15:41:44.429Z,26.27
2018-02-09T15:44:12.131Z,21.33
2018-02-09T15:46:39.784Z,23.30
2018-02-09T15:49:07.557Z,18.67
2018-02-09T15:51:35.146Z,16.33
2018-02-09T15:54:03.068Z,20.53
2018-02-09T15:56:31.054Z,19.77
2018-02-09T15:58:58.795Z,20.50
2018-02-09T16:01:26.621Z,18.13
2018-02-09T16:03:54.163Z,19.73
2018-02-09T16:06:21.718Z,15.93
2018-02-09T16:08:49.485Z,19.53
2018-02-09T16:11:17.303Z,23.00
2018-02-09T16:13:45.120Z,22.10
2018-02-09T16:16:12.676Z,38.00
2018-02-09T16:18:40.348Z,26.73
2018-02-09T16:21:08.075Z,23.77
2018-02-09T16:23:35.793Z,22.07
2018-02-09T16:26:03.403Z,21.40
2018-02-09T16:28:31.042Z,27.40
2018-02-09T16:30:58.956Z,26.67
2018-02-09T16:33:26.967Z,42.53
2018-02-09T16:35:54.766Z,38.73
2018-02-09T16:38:22.704Z,42.03
2018-02-09T16:40:50.262Z,37.60
2018-02-09T16:43:17.869Z,51.70
2018-02-09T16:45:45.655Z,30.83
2018-02-09T16:48:13.406Z,95.60
2018-02-09T16:50:40.980Z,70.90
2018-02-09T16:53:08.814Z,81.17
2018-02-09T16:55:36.863Z,61.30
2018-02-09T16:58:04.753Z,46.00
2018-02-09T17:00:32.531Z,66.23
2018-02-09T17:03:00.154Z,64.27
2018-02-09T17:05:27.853Z,28.47
2018-02-09T17:07:55.446Z,29.33
2018-02-09T17:10:23.009Z,29.07
2018-02-09T17:12:50.582Z,44.27
2018-02-09T17:15:18.141Z,32.33
2018-02-09T17:17:45.706Z,29.17
2018-02-09T17:20:13.269Z,37.47
2018-02-09T17:22:40.829Z,36.30
2018-02-09T17:25:08.438Z,32.23
2018-02-09T17:27:36.005Z,34.93
2018-02-09T17:30:03.629Z,35.43
2018-02-09T17:32:31.185Z,55.70
2018-02-09T17:34:58.741Z,40.53
2018-02-09T17:37:26.328Z,45.57
2018-02-09T17:39:54.016Z,47.40
2018-02-09T17:42:21.758Z,39.40
2018-02-09T17:44:49.478Z,82.87
2018-02-09T17:47:17.310Z,72.47
2018-02-09T17:49:44.882Z,47.40
2018-02-09T17:52:12.646Z,64.50
2018-02-09T17:54:40.213Z,71.57
2018-02-09T17:57:07.870Z,99.03
2018-02-09T17:59:35.496Z,98.50
2018-02-09T18:02:03.320Z,78.53
2018-02-09T18:04:30.937Z,115.50
2018-02-09T18:06:58.656Z,89.43
2018-02-09T18:09:26.391Z,90.33
2018-02-09T18:11:53.957Z,103.53
2018-02-09T18:14:21.545Z,99.40
2018-02-09T18:16:49.161Z,97.90
2018-02-09T18:19:16.748Z,185.40
2018-02-09T18:21:45.208Z,161.83
2018-02-09T18:24:12.853Z,306.87
2018-02-09T18:26:40.421Z,211.10
2018-02-09T18:29:07.993Z,189.80
2018-02-09T18:31:35.736Z,182.57
2018-02-09T18:34:03.550Z,133.27
2018-02-09T18:36:31.394Z,155.50
2018-02-09T18:38:59.017Z,230.93
2018-02-09T18:41:26.812Z,154.80
2018-02-09T18:43:54.384Z,295.67
2018-02-09T18:46:22.146Z,216.23
2018-02-09T18:48:49.741Z,151.50
2018-02-09T18:51:17.320Z,181.93
2018-02-09T18:53:44.903Z,133.93
2018-02-09T18:56:12.719Z,175.17
2018-02-09T18:58:40.289Z,169.17
2018-02-09T19:01:07.872Z,144.13
2018-02-09T19:03:35.556Z,120.93
2018-02-09T19:06:03.488Z,123.67
2018-02-09T19:08:31.053Z,67.90
2018-02-09T19:10:58.610Z,67.23
2018-02-09T19:13:26.609Z,51.33
2018-02-09T19:15:54.326Z,100.90
2018-02-09T19:18:21.888Z,188.27
2018-02-09T19:20:49.703Z,231.57
2018-02-09T19:23:17.405Z,139.57
2018-02-09T19:25:45.029Z,122.17
2018-02-09T19:28:12.602Z,183.30
2018-02-09T19:30:40.242Z,197.70
2018-02-09T19:33:07.891Z,149.07
2018-02-09T19:35:35.707Z,141.23
2018-02-09T19:38:03.277Z,114.53
2018-02-09T19:40:31.045Z,94.57
2018-02-09T19:42:58.648Z,87.83
2018-02-09T19:45:26.379Z,110.87
2018-02-09T19:47:53.997Z,67.30
2018-02-09T19:50:21.555Z,68.80
2018-02-09T19:52:49.471Z,80.10
2018-02-09T19:55:17.246Z,85.20
2018-02-09T19:57:44.818Z,116.50
2018-02-09T20:00:12.401Z,83.40
2018-02-09T20:02:40.200Z,156.27
2018-02-09T20:05:07.774Z,101.53
2018-02-09T20:07:35.637Z,174.43
2018-02-09T20:10:03.222Z,53.40
2018-02-09T20:12:30.959Z,57.70
2018-02-09T20:14:58.516Z,46.83
2018-02-09T20:17:26.154Z,50.07
2018-02-09T20:19:53.821Z,53.67
2018-02-09T20:22:21.640Z,52.77
2018-02-09T20:24:49.363Z,56.20
2018-02-09T20:27:16.972Z,56.30
2018-02-09T20:29:44.591Z,487.40
2018-02-09T20:32:12.281Z,329.00
2018-02-09T20:34:40.136Z,128.47
2018-02-09T20:37:07.711Z,173.23
2018-02-09T20:39:35.472Z,97.93
2018-02-09T20:42:03.042Z,59.73
2018-02-09T20:44:30.612Z,44.83
2018-02-09T20:46:58.425Z,51.03
2018-02-09T20:49:26.143Z,70.33
2018-02-09T20:51:53.963Z,60.10
2018-02-09T20:54:21.527Z,52.63
2018-02-09T20:56:49.085Z,287.13
2018-02-09T20:59:16.658Z,56.20
2018-02-09T21:01:44.313Z,61.90
2018-02-09T21:04:12.052Z,66.13
2018-02-09T21:06:39.610Z,66.13
2018-02-09T21:09:07.490Z,65.37
2018-02-09T21:11:35.097Z,68.03
2018-02-09T21:14:02.665Z,63.87
2018-02-09T21:16:30.232Z,64.00
2018-02-09T21:18:57.939Z,82.60
2018-02-09T21:21:25.526Z,122.30
2018-02-09T21:23:53.085Z,80.67
2018-02-09T21:26:20.887Z,71.50
2018-02-09T21:28:48.603Z,71.87
2018-02-09T21:31:16.158Z,64.73
2018-02-09T21:33:43.725Z,75.93
2018-02-09T21:36:11.274Z,77.47
2018-02-09T21:38:39.110Z,84.77
2018-02-09T21:41:06.826Z,71.37
2018-02-09T21:43:34.543Z,62.20
2018-02-09T21:46:02.273Z,69.27
2018-02-09T21:48:30.121Z,62.53
2018-02-09T21:50:57.738Z,60.83
2018-02-09T21:53:25.517Z,70.70
2018-02-09T21:55:53.091Z,60.73
2018-02-09T21:58:20.824Z,61.87
2018-02-09T22:00:48.425Z,58.60
2018-02-09T22:03:16.290Z,55.50
2018-02-09T22:05:43.921Z,56.47
2018-02-09T22:08:11.478Z,64.17
2018-02-09T22:10:39.204Z,54.87
2018-02-09T22:13:06.921Z,49.60
2018-02-09T22:15:34.781Z,34.70
2018-02-09T22:18:02.333Z,34.60
2018-02-09T22:20:30.008Z,31.50
2018-02-09T22:22:57.600Z,32.97
2018-02-09T22:25:25.245Z,37.97
2018-02-09T22:27:52.961Z,29.43
2018-02-09T22:30:20.604Z,29.97
2018-02-09T22:32:48.318Z,33.97
2018-02-09T22:35:15.897Z,30.23
2018-02-09T22:37:43.454Z,33.30
2018-02-09T22:40:11.070Z,142.20
2018-02-09T22:42:38.881Z,49.67
2018-02-09T22:45:06.595Z,37.87
2018-02-09T22:47:34.162Z,32.43
2018-02-09T22:50:01.913Z,41.47
2018-02-09T22:52:29.630Z,37.33
2018-02-09T22:54:57.186Z,44.90
2018-02-09T22:57:24.810Z,35.60
2018-02-09T22:59:52.403Z,36.87
2018-02-09T23:02:19.961Z,33.43
2018-02-09T23:04:47.527Z,34.67
2018-02-09T23:07:15.260Z,37.03
2018-02-09T23:09:43.078Z,39.70
2018-02-09T23:12:10.629Z,37.70
2018-02-09T23:14:38.377Z,39.93
2018-02-09T23:17:05.941Z,40.50
2018-02-09T23:19:33.505Z,39.53
2018-02-09T23:22:01.266Z,35.73
2018-02-09T23:24:28.817Z,44.13
2018-02-09T23:26:56.432Z,50.37
2018-02-09T23:29:24.221Z,53.67
2018-02-09T23:31:52.040Z,47.60
2018-02-09T23:34:19.615Z,51.60
2018-02-09T23:36:47.346Z,49.00
2018-02-09T23:39:14.905Z,46.77
2018-02-09T23:41:42.466Z,47.03
2018-02-09T23:44:10.328Z,42.40
2018-02-09T23:46:38.148Z,39.67
2018-02-09T23:49:05.697Z,43.93
2018-02-09T23:51:33.257Z,47.00
2018-02-09T23:54:01.101Z,45.63
2018-02-09T23:56:28.670Z,35.80
2018-02-09T23:58:56.224Z,36.40
